Latest Weather Observations for Longreach

IDQ60801

Issued at 6:42 pm EST Wednesday 23 May 2018 (issued every 10 minutes, with the page automatically refreshed every 10 minutes)

About weather observations | Map of weather stations | Latest weather observations for QLD | Other Formats
Station Details ID: 036031 Name: LONGREACH AERO Lat: -23.44 Lon: 144.28 Height: 192.2 m
Data from the previous 72 hours. | See also: Recent months at Longreach
Date/Time
EST
Temp
°C
App
Temp
°C
Dew
Point
°C
Rel
Hum
%
Delta-T
°C
Wind Press
QNH
hPa
Press
MSL
hPa
Rain since
9am
mm
Dir  Spd
km/h
Gust
km/h
Spd
kts
Gust
kts
23/06:30pm 20.9 17.1 -1.0 23 9.6 SSE 9 9 5 5 1020.0 1019.5 0.0
23/06:00pm 22.2 18.8 -0.5 22 10.2 SSE 7 9 4 5 1019.6 1019.1 0.0
23/05:30pm 23.6 19.0 -1.3 19 11.2 SSE 13 17 7 9 1019.2 1018.7 0.0
23/05:00pm 24.5 20.3 -0.6 19 11.5 SSE 11 15 6 8 1018.9 1018.4 0.0
23/04:30pm 25.2 20.6 -0.8 18 11.9 SE 13 19 7 10 1018.7 1018.2 0.0
23/04:00pm 25.4 21.6 -0.6 18 12.0 S 9 15 5 8 1018.8 1018.3 0.0
23/03:30pm 25.6 21.8 -0.5 18 12.1 E 9 15 5 8 1018.9 1018.4 0.0
23/03:00pm 25.6 20.8 0.3 19 11.8 SE 15 24 8 13 1019.0 1018.5 0.0
23/02:30pm 25.2 20.7 0.0 19 11.7 SSE 13 22 7 12 1019.1 1018.6 0.0
23/02:00pm 25.2 21.4 2.0 22 11.2 ESE 11 19 6 10 1019.4 1018.9 0.0
23/01:30pm 24.7 20.6 2.2 23 10.9 SE 13 19 7 10 1019.9 1019.4 0.0
23/01:00pm 23.9 20.3 2.7 25 10.2 S 11 17 6 9 1020.4 1019.9 0.0
23/12:30pm 23.3 19.3 2.7 26 9.9 ESE 13 17 7 9 1021.3 1020.7 0.0
23/12:00pm 22.9 19.4 3.4 28 9.5 ESE 11 19 6 10 1021.9 1021.3 0.0
23/11:30am 22.0 17.8 3.6 30 8.9 SE 15 24 8 13 1022.5 1021.9 0.0
23/11:00am 21.3 16.4 4.0 32 8.4 ESE 19 26 10 14 1022.7 1022.2 0.0
23/10:30am 20.4 15.0 4.4 35 7.8 SE 22 28 12 15 1023.1 1022.6 0.0
23/10:00am 19.1 12.9 4.1 37 7.2 ESE 26 32 14 17 1023.5 1023.0 0.0
23/09:30am 17.9 11.7 4.5 41 6.4 ESE 26 35 14 19 1023.6 1023.1 0.0
23/09:00am 16.1 10.6 3.9 44 5.7 ESE 22 32 12 17 1023.5 1023.0 0.0
23/08:30am 13.9 9.2 3.4 49 4.8 SE 17 22 9 12 1023.5 1023.0 0.0
23/08:00am 11.1 7.3 1.9 53 3.9 SE 11 13 6 7 1023.5 1023.0 0.0
23/07:30am 9.6 5.8 1.5 57 3.4 SE 11 13 6 7 1023.3 1022.8 0.0
23/07:00am 8.8 5.0 1.5 60 3.0 SE 11 15 6 8 1023.0 1022.5 0.0
23/06:30am 9.6 5.0 1.5 57 3.4 SE 15 17 8 9 1022.7 1022.2 0.0
23/06:00am 9.9 5.3 1.5 56 3.5 SE 15 19 8 10 1022.3 1021.7 0.0
23/05:30am 10.3 5.3 1.4 54 3.7 SE 17 19 9 10 1022.1 1021.5 0.0
23/05:00am 10.6 5.7 1.7 54 3.8 SE 17 22 9 12 1022.0 1021.4 0.0
23/04:30am 10.3 4.7 1.2 53 3.8 SE 20 26 11 14 1021.8 1021.2 0.0
23/04:00am 10.0 4.8 0.3 51 4.0 SSE 17 19 9 10 1021.8 1021.2 0.0
23/03:30am 10.2 5.0 0.0 49 4.2 SE 17 20 9 11 1021.8 1021.2 0.0
23/03:00am 10.0 4.7 -0.5 48 4.2 SSE 17 17 9 9 1021.8 1021.2 0.0
23/02:30am 11.1 6.6 -0.1 46 4.6 SSE 13 15 7 8 1022.1 1021.5 0.0
23/02:00am 11.8 7.0 0.0 44 4.9 SSE 15 17 8 9 1022.1 1021.5 0.0
23/01:30am 11.7 6.8 -0.4 43 5.0 SSE 15 19 8 10 1022.2 1021.6 0.0
23/01:00am 12.0 7.5 -0.5 42 5.1 SSE 13 15 7 8 1022.5 1021.9 0.0
23/12:30am 12.4 7.5 -0.8 40 5.4 SSE 15 17 8 9 1022.5 1021.9 0.0
23/12:00am 12.8 8.2 -0.8 39 5.6 SSE 13 15 7 8 1022.8 1022.3 0.0
 
Date/Time
EST
Temp
°C
App
Temp
°C
Dew
Point
°C
Rel
Hum
%
Delta-T
°C
Wind Press
QNH
hPa
Press
MSL
hPa
Rain since
9am
mm
Dir  Spd
km/h
Gust
km/h
Spd
kts
Gust
kts
22/11:30pm 13.6 9.0 -0.8 37 6.0 SSE 13 15 7 8 1022.6 1022.0 0.0
22/11:00pm 13.3 8.4 -0.7 38 5.8 SSE 15 17 8 9 1022.6 1022.0 0.0
22/10:30pm 12.8 8.1 -1.9 36 5.9 SSE 13 15 7 8 1022.8 1022.3 0.0
22/10:00pm 13.0 8.3 -1.7 36 5.9 S 13 19 7 10 1022.8 1022.3 0.0
22/09:30pm 14.2 9.9 -1.4 34 6.4 SSE 11 13 6 7 1022.8 1022.3 0.0
22/09:00pm 15.1 10.6 -0.6 34 6.6 SSE 13 13 7 7 1022.6 1022.0 0.0
22/08:30pm 16.7 12.6 -0.5 31 7.4 SSE 11 13 6 7 1022.6 1022.0 0.0
22/08:00pm 17.2 12.7 -0.5 30 7.6 SSE 13 15 7 8 1022.4 1021.8 0.0
22/07:30pm 17.9 13.4 -0.4 29 8.0 SSE 13 15 7 8 1022.3 1021.7 0.0
22/07:00pm 18.7 13.8 -0.7 27 8.4 SSE 15 17 8 9 1022.1 1021.5 0.0
22/06:30pm 20.4 15.1 -0.3 25 9.2 SSE 17 19 9 10 1021.8 1021.2 0.0
22/06:00pm 21.4 16.1 -0.6 23 9.8 SSE 17 20 9 11 1021.5 1020.9 0.0
22/05:30pm 22.7 16.9 -0.1 22 10.4 SSE 20 33 11 18 1021.3 1020.7 0.0
22/05:00pm 23.6 17.4 0.0 21 10.8 SSE 22 30 12 16 1021.2 1020.6 0.0
22/04:30pm 24.3 18.1 -0.1 20 11.2 SSE 22 33 12 18 1021.4 1020.8 0.0
22/04:00pm 24.5 18.0 0.1 20 11.3 SSE 24 33 13 18 1021.4 1020.8 0.0
22/03:30pm 24.7 18.5 -0.4 19 11.5 SSE 22 30 12 16 1021.3 1020.7 0.0
22/03:00pm 23.9 17.7 -0.4 20 11.1 S 22 32 12 17 1021.4 1020.8 0.0
22/02:30pm 24.2 18.1 0.5 21 11.0 SE 22 32 12 17 1021.5 1020.9 0.0
22/02:00pm 23.9 18.5 1.5 23 10.6 SSE 19 30 10 16 1022.0 1021.4 0.0
22/01:30pm 23.7 18.2 2.0 24 10.4 SSE 20 32 11 17 1022.4 1021.8 0.0
22/01:00pm 23.0 17.2 2.5 26 9.8 SE 22 33 12 18 1023.0 1022.5 0.0
22/12:30pm 22.8 16.9 3.9 29 9.3 SSE 24 32 13 17 1023.8 1023.3 0.0
22/12:00pm 22.5 15.4 3.6 29 9.2 SE 30 35 16 19 1024.3 1023.8 0.0
22/11:30am 22.1 15.6 4.7 32 8.6 SE 28 39 15 21 1024.8 1024.3 0.0
22/11:00am 21.0 13.7 4.6 34 8.0 SE 32 39 17 21 1025.3 1024.8 0.0
22/10:30am 20.6 14.2 5.0 36 7.7 SE 28 35 15 19 1025.6 1025.1 0.0
22/10:00am 19.4 11.7 5.5 40 6.8 SE 35 43 19 23 1026.0 1025.4 0.0
22/09:30am 18.9 12.5 5.4 41 6.6 SE 28 35 15 19 1025.8 1025.3 0.0
22/09:00am 17.4 11.3 5.0 44 6.0 SE 26 37 14 20 1025.4 1024.9 0.0
22/08:30am 15.2 10.1 4.3 48 5.1 SE 20 30 11 16 1025.2 1024.7 0.0
22/08:00am 13.2 8.0 3.3 51 4.4 SE 20 28 11 15 1025.1 1024.6 0.0
22/07:30am 12.0 6.3 2.7 53 4.1 SE 22 28 12 15 1024.7 1024.2 0.0
22/07:00am 11.3 6.1 2.6 55 3.8 SE 19 26 10 14 1024.5 1024.0 0.0
22/06:30am 11.0 5.8 2.6 56 3.7 SE 19 24 10 13 1024.4 1023.9 0.0
22/06:00am 10.7 5.4 1.8 54 3.8 SE 19 24 10 13 1024.4 1023.9 0.0
22/05:30am 11.2 5.7 2.0 53 4.0 SE 20 26 11 14 1023.8 1023.3 0.0
22/05:00am 11.3 6.3 1.5 51 4.2 SE 17 20 9 11 1023.8 1023.3 0.0
22/04:30am 11.7 6.7 1.4 49 4.4 SE 17 20 9 11 1023.8 1023.3 0.0
22/04:00am 12.4 6.9 1.7 48 4.6 SE 20 26 11 14 1023.7 1023.2 0.0
22/03:30am 12.3 7.3 1.6 48 4.6 SE 17 20 9 11 1023.4 1022.9 0.0
22/03:00am 12.5 7.5 1.2 46 4.8 SE 17 20 9 11 1023.5 1023.0 0.0
22/02:30am 13.3 7.7 1.0 43 5.3 SE 20 26 11 14 1023.5 1023.0 0.0
22/02:00am 13.9 7.9 0.9 41 5.6 SE 22 30 12 16 1023.6 1023.1 0.0
22/01:30am 14.2 8.5 0.8 40 5.8 SE 20 28 11 15 1023.8 1023.3 0.0
22/01:00am 14.4 8.9 0.3 38 6.0 SE 19 26 10 14 1024.0 1023.5 0.0
22/12:30am 15.2 10.0 0.2 36 6.4 SSE 17 20 9 11 1023.9 1023.4 0.0
22/12:00am 14.6 9.2 -1.1 34 6.5 SSE 17 22 9 12 1023.9 1023.4 0.0
 
Date/Time
EST
Temp
°C
App
Temp
°C
Dew
Point
°C
Rel
Hum
%
Delta-T
°C
Wind Press
QNH
hPa
Press
MSL
hPa
Rain since
9am
mm
Dir  Spd
km/h
Gust
km/h
Spd
kts
Gust
kts
21/11:30pm 15.9 10.2 -0.8 32 7.1 SSE 19 22 10 12 1023.9 1023.4 0.0
21/11:00pm 15.8 10.0 -1.3 31 7.1 SSE 19 26 10 14 1024.0 1023.5 0.0
21/10:30pm 14.7 9.5 -2.7 30 7.0 SSE 15 19 8 10 1023.9 1023.4 0.0
21/10:00pm 15.4 9.7 -3.5 27 7.5 S 17 20 9 11 1024.0 1023.5 0.0
21/09:30pm 15.7 10.0 -3.7 26 7.7 S 17 19 9 10 1024.0 1023.5 0.0
21/09:00pm 15.4 10.1 -4.0 26 7.6 S 15 17 8 9 1024.1 1023.6 0.0
21/08:30pm 15.7 10.8 -3.7 26 7.7 S 13 15 7 8 1023.8 1023.3 0.0
21/08:00pm 16.9 11.6 -3.2 25 8.1 SSE 15 17 8 9 1023.6 1023.1 0.0
21/07:30pm 17.9 13.0 -3.5 23 8.7 SSE 13 15 7 8 1023.2 1022.7 0.0
21/07:00pm 18.7 13.4 -3.4 22 9.1 SSE 15 17 8 9 1022.9 1022.4 0.0
21/06:30pm 20.4 14.8 -2.6 21 9.8 SSE 17 20 9 11 1022.5 1021.9 0.0
21/06:00pm 21.6 15.6 -1.6 21 10.1 SSE 20 28 11 15 1022.0 1021.4 0.0
21/05:30pm 22.8 15.6 -2.0 19 10.9 SSE 26 32 14 17 1021.6 1021.0 0.0
21/05:00pm 24.0 17.1 -2.5 17 11.6 SSE 24 35 13 19 1021.1 1020.5 0.0
21/04:30pm 24.4 17.7 -1.4 18 11.6 S 24 35 13 19 1020.9 1020.3 0.0
21/04:00pm 24.9 18.9 1.1 21 11.2 SSE 22 28 12 15 1020.7 1020.1 0.0
21/03:30pm 25.4 20.4 1.5 21 11.4 S 17 24 9 13 1020.8 1020.2 0.0
21/03:00pm 25.0 19.7 1.8 22 11.1 SE 19 30 10 16 1020.9 1020.3 0.0
21/02:30pm 25.0 19.6 2.4 23 11.0 SSE 20 28 11 15 1020.8 1020.2 0.0
21/02:00pm 24.9 19.5 2.4 23 10.9 SSE 20 30 11 16 1020.9 1020.3 0.0
21/01:30pm 23.8 18.5 2.0 24 10.4 SE 19 33 10 18 1021.3 1020.7 0.0
21/01:00pm 24.0 18.7 2.8 25 10.3 SE 20 30 11 16 1021.9 1021.3 0.0
21/12:30pm 23.5 17.7 2.4 25 10.1 ESE 22 30 12 16 1022.6 1022.0 0.0
21/12:00pm 22.9 16.7 1.9 25 9.9 SE 24 33 13 18 1023.3 1022.8 0.0
21/11:30am 22.5 16.7 2.1 26 9.7 SE 22 30 12 16 1023.7 1023.2 0.0
21/11:00am 21.3 14.7 2.1 28 9.0 SE 26 35 14 19 1024.0 1023.5 0.0
21/10:30am 20.0 12.2 1.4 29 8.5 SE 32 37 17 20 1024.5 1024.0 0.0
21/10:00am 19.4 11.4 1.4 30 8.2 SE 33 41 18 22 1024.6 1024.1 0.0
21/09:30am 18.3 10.2 0.9 31 7.8 SE 33 44 18 24 1024.4 1023.9 0.0
21/09:00am 17.3 9.2 1.3 34 7.1 SE 33 43 18 23 1024.4 1023.9 0.0
21/08:30am 16.0 8.5 1.3 37 6.5 SE 30 39 16 21 1024.2 1023.7 0.0
21/08:00am 14.5 8.2 1.4 41 5.7 SE 24 32 13 17 1023.9 1023.4 0.0
21/07:30am 12.8 7.4 1.5 46 4.9 SE 19 24 10 13 1023.5 1023.0 0.0
21/07:00am 11.9 6.3 1.3 48 4.5 SE 20 26 11 14 1023.2 1022.7 0.0
21/06:30am 12.1 6.2 1.4 48 4.6 SE 22 28 12 15 1022.8 1022.3 0.0
21/06:00am 12.1 6.5 1.1 47 4.7 SE 20 26 11 14 1022.3 1021.7 0.0
21/05:30am 12.4 6.8 1.1 46 4.8 SE 20 30 11 16 1022.0 1021.4 0.0
21/05:00am 12.9 7.9 1.6 46 4.9 SSE 17 26 9 14 1021.7 1021.1 0.0
21/04:30am 12.0 7.0 1.3 48 4.6 SSE 17 19 9 10 1021.7 1021.1 0.0
21/04:00am 11.5 6.8 0.9 48 4.4 SSE 15 19 8 10 1021.7 1021.1 0.0
21/03:30am 11.3 7.0 0.7 48 4.4 SSE 13 17 7 9 1021.8 1021.2 0.0
21/03:00am 11.5 7.2 0.9 48 4.4 SSE 13 15 7 8 1021.7 1021.1 0.0
21/02:30am 12.3 8.0 1.0 46 4.8 S 13 15 7 8 1021.9 1021.3 0.0
21/02:00am 12.9 8.6 1.3 45 5.0 SSE 13 15 7 8 1022.1 1021.5 0.0
21/01:30am 13.6 9.4 1.6 44 5.2 S 13 13 7 7 1022.4 1021.8 0.0
21/01:00am 13.7 9.5 1.4 43 5.3 SSE 13 13 7 7 1022.3 1021.7 0.0
21/12:30am 14.5 10.3 1.8 42 5.6 SSE 13 15 7 8 1022.4 1021.8 0.0
21/12:00am 15.4 11.2 1.9 40 6.0 SSE 13 17 7 9 1022.3 1021.7 0.0
 
Date/Time
EST
Temp
°C
App
Temp
°C
Dew
Point
°C
Rel
Hum
%
Delta-T
°C
Wind Press
QNH
hPa
Press
MSL
hPa
Rain since
9am
mm
Dir  Spd
km/h
Gust
km/h
Spd
kts
Gust
kts
20/11:30pm 16.1 11.5 1.8 38 6.4 SSE 15 17 8 9 1022.3 1021.7 0.0
20/11:00pm 16.8 11.9 2.0 37 6.7 SSE 17 20 9 11 1022.4 1021.8 0.0
20/10:30pm 17.3 12.4 2.1 36 6.9 SSE 17 19 9 10 1022.4 1021.8 0.0
20/10:00pm 18.8 13.9 2.2 33 7.6 SSE 17 24 9 13 1022.4 1021.8 0.0
20/09:30pm 19.8 14.7 3.1 33 7.9 SE 19 26 10 14 1022.3 1021.7 0.0
20/09:00pm 18.7 14.2 2.1 33 7.6 SSE 15 19 8 10 1022.4 1021.8 0.0
20/08:30pm 18.8 13.9 1.8 32 7.8 SSE 17 19 9 10 1022.2 1021.6 0.0
20/08:00pm 19.2 14.7 2.1 32 7.9 SSE 15 20 8 11 1021.9 1021.3 0.0
20/07:30pm 19.9 15.8 2.3 31 8.2 SSE 13 17 7 9 1021.6 1021.0 0.0
20/07:00pm 20.6 16.6 2.9 31 8.4 SSE 13 15 7 8 1021.1 1020.5 0.0

Other Formats:

Comma delimited format used in spreadsheet applications
http://www.bom.gov.au/fwo/IDQ60801/IDQ60801.94346.axf

JavaScript Object Notation format (JSON) in row-major order
http://www.bom.gov.au/fwo/IDQ60801/IDQ60801.94346.json